Time;durP1;ratioP1;P1;durP2;ratioP2;P2;SDS_P1;SDS_P2;PMS_P1;PMS_P2;Temp;Humidity;BMP_temperature;BMP_pressure;BME280_temperature;BME280_humidity;BME280_pressure;Samples;Min_cycle;Max_cycle;Signal;HPM_P1;HPM_P2
2022/09/18 00:01:06;;;;;;;12.50;3.38;;;;;;;-142.57;100.00;68379.81;5053040;28;20511;-73
2022/09/18 00:03:32;;;;;;;7.25;2.63;;;;;;;-142.57;100.00;68379.81;5052928;28;20116;-73
2022/09/18 00:05:57;;;;;;;6.95;3.10;;;;;;;-142.57;100.00;68379.81;5043365;28;20108;-73
2022/09/18 00:08:22;;;;;;;8.23;2.97;;;;;;;-142.57;100.00;68379.81;5034401;28;20075;-73
2022/09/18 00:10:48;;;;;;;8.27;2.88;;;;;;;-142.57;100.00;68379.81;5050658;28;20032;-73
2022/09/18 00:13:14;;;;;;;5.22;2.70;;;;;;;-142.57;100.00;68379.81;5039642;28;20037;-72
2022/09/18 00:15:39;;;;;;;8.45;2.92;;;;;;;-142.57;100.00;68379.81;5067204;28;20032;-72
2022/09/18 00:18:06;;;;;;;3.97;2.40;;;;;;;-142.57;100.00;68379.81;5052165;28;20021;-73
2022/09/18 00:20:35;;;;;;;5.85;2.55;;;;;;;-142.57;100.00;68379.81;5051625;28;20048;-73
2022/09/18 00:23:01;;;;;;;4.65;2.85;;;;;;;-142.57;100.00;68379.81;5038007;28;20033;-74
2022/09/18 00:25:26;;;;;;;5.13;2.80;;;;;;;-142.57;100.00;68379.81;5062010;28;20082;-73
2022/09/18 00:27:52;;;;;;;5.57;3.13;;;;;;;-142.57;100.00;68379.81;5050863;28;20087;-74
2022/09/18 00:30:17;;;;;;;5.55;3.63;;;;;;;-142.57;100.00;68379.81;5051811;28;20472;-73
2022/09/18 00:32:42;;;;;;;6.68;3.63;;;;;;;-142.57;100.00;68379.81;5052644;28;20024;-72
2022/09/18 00:35:08;;;;;;;11.38;4.30;;;;;;;-142.57;100.00;68379.81;5052201;28;20033;-73
2022/09/18 00:37:33;;;;;;;4.95;3.20;;;;;;;-142.57;100.00;68379.81;5052012;28;20399;-73
2022/09/18 00:39:59;;;;;;;10.43;4.80;;;;;;;-142.57;100.00;68379.81;5052031;28;20476;-73
2022/09/18 00:42:24;;;;;;;6.88;4.65;;;;;;;-142.57;100.00;68379.81;5052320;28;20025;-73
2022/09/18 00:44:49;;;;;;;7.18;4.72;;;;;;;-142.57;100.00;68379.81;5052119;28;20025;-72
2022/09/18 00:47:27;;;;;;;7.80;5.20;;;;;;;-142.57;100.00;68379.81;5048958;28;20476;-72
2022/09/18 00:50:20;;;;;;;9.18;5.35;;;;;;;-142.57;100.00;68379.81;5052198;28;20040;-72
2022/09/18 00:52:53;;;;;;;14.77;5.72;;;;;;;-142.57;100.00;68379.81;5039790;28;20064;-72
2022/09/18 00:55:22;;;;;;;9.60;5.05;;;;;;;-142.57;100.00;68379.81;5052184;28;20025;-72
2022/09/18 00:57:53;;;;;;;11.82;6.97;;;;;;;-142.57;100.00;68379.81;5029198;28;20854;-71
2022/09/18 01:00:19;;;;;;;10.85;5.85;;;;;;;-142.57;100.00;68379.81;5024813;28;20029;-71
2022/09/18 01:02:45;;;;;;;13.60;5.47;;;;;;;-142.57;100.00;68379.81;5052405;28;20029;-71
2022/09/18 01:05:13;;;;;;;9.07;5.07;;;;;;;-142.57;100.00;68379.81;5048691;28;20040;-72
2022/09/18 01:08:06;;;;;;;13.13;5.53;;;;;;;-142.57;100.00;68379.81;5058798;28;20044;-72
2022/09/18 01:10:46;;;;;;;19.33;5.75;;;;;;;-142.57;100.00;68379.81;5051219;28;20048;-72
2022/09/18 01:13:48;;;;;;;10.15;4.68;;;;;;;-142.57;100.00;68379.81;5061295;28;20034;-71
2022/09/18 01:16:21;;;;;;;11.55;4.45;;;;;;;-142.57;100.00;68379.81;5054889;28;20044;-72
2022/09/18 01:19:14;;;;;;;10.38;4.82;;;;;;;-142.57;100.00;68379.81;5048050;28;20039;-72
2022/09/18 01:21:49;;;;;;;10.63;4.57;;;;;;;-142.57;100.00;68379.81;5056040;28;20025;-71
2022/09/18 01:24:20;;;;;;;7.38;3.50;;;;;;;-142.57;100.00;68379.81;5083554;28;20387;-74
2022/09/18 01:26:57;;;;;;;16.33;3.13;;;;;;;-142.57;100.00;68379.81;5028676;28;20464;-72
2022/09/18 01:29:42;;;;;;;5.78;2.40;;;;;;;-142.57;100.00;68379.81;5052125;28;20021;-71
2022/09/18 01:32:20;;;;;;;5.28;2.45;;;;;;;-142.57;100.00;68379.81;5062679;28;20390;-71
2022/09/18 01:34:55;;;;;;;8.32;2.85;;;;;;;-142.57;100.00;68379.81;5039338;28;20037;-70
2022/09/18 01:37:37;;;;;;;6.40;2.53;;;;;;;-142.57;100.00;68379.81;5064216;28;20246;-69
2022/09/18 01:40:11;;;;;;;10.57;2.67;;;;;;;-142.57;100.00;68379.81;5049182;28;20086;-70
2022/09/18 01:42:38;;;;;;;10.77;3.97;;;;;;;-142.57;100.00;68379.81;5046056;28;20127;-70
2022/09/18 01:45:12;;;;;;;5.55;3.20;;;;;;;-142.57;100.00;68379.81;5050258;28;20037;-70
2022/09/18 01:47:45;;;;;;;7.05;3.10;;;;;;;-142.57;100.00;68379.81;5050260;28;20033;-70
2022/09/18 01:50:11;;;;;;;7.63;3.75;;;;;;;-142.57;100.00;68379.81;5048928;28;20033;-69
2022/09/18 01:52:41;;;;;;;11.25;4.88;;;;;;;-142.57;100.00;68379.81;5049408;28;20122;-69
2022/09/18 01:55:13;;;;;;;9.57;5.03;;;;;;;-142.57;100.00;68379.81;5048130;28;20170;-69
2022/09/18 01:57:55;;;;;;;10.07;4.35;;;;;;;-142.57;100.00;68379.81;5050113;28;20029;-70
2022/09/18 02:00:21;;;;;;;9.05;4.47;;;;;;;-142.57;100.00;68379.81;5038832;28;20063;-71
2022/09/18 02:02:57;;;;;;;8.38;4.40;;;;;;;-142.57;100.00;68379.81;5051521;28;20051;-71
2022/09/18 02:05:37;;;;;;;8.20;4.05;;;;;;;-142.57;100.00;68379.81;5053983;28;20052;-71
2022/09/18 02:08:23;;;;;;;10.25;4.60;;;;;;;-142.57;100.00;68379.81;5049027;28;20033;-71
2022/09/18 02:10:53;;;;;;;11.13;3.92;;;;;;;-142.57;100.00;68379.81;5054674;28;20365;-71
2022/09/18 02:13:24;;;;;;;10.00;4.18;;;;;;;-142.57;100.00;68379.81;5054309;28;20029;-74
2022/09/18 02:15:50;;;;;;;6.90;3.47;;;;;;;-142.57;100.00;68379.81;5061405;28;20400;-71
2022/09/18 02:18:29;;;;;;;12.32;3.40;;;;;;;-142.57;100.00;68379.81;5053574;28;20037;-71
2022/09/18 02:20:55;;;;;;;11.93;4.68;;;;;;;-142.57;100.00;68379.81;5041366;28;20035;-71
2022/09/18 02:23:22;;;;;;;14.95;5.15;;;;;;;-142.57;100.00;68379.81;5053843;28;20387;-72
2022/09/18 02:25:59;;;;;;;8.35;4.30;;;;;;;-142.57;100.00;68379.81;5050089;28;20020;-71
2022/09/18 02:28:25;;;;;;;11.95;3.78;;;;;;;-142.57;100.00;68379.81;5050526;28;20036;-72
2022/09/18 02:30:50;;;;;;;6.53;2.80;;;;;;;-142.57;100.00;68379.81;5050311;28;20632;-71
2022/09/18 02:33:27;;;;;;;7.97;3.25;;;;;;;-142.57;100.00;68379.81;5051144;28;20032;-72
2022/09/18 02:36:25;;;;;;;6.70;2.72;;;;;;;-142.57;100.00;68379.81;5061801;28;20045;-72
2022/09/18 02:39:19;;;;;;;7.15;2.22;;;;;;;-142.57;100.00;68379.81;5051372;28;20033;-72
2022/09/18 02:41:45;;;;;;;13.17;2.87;;;;;;;-142.57;100.00;68379.81;5044849;28;20045;-73
2022/09/18 02:44:31;;;;;;;5.25;2.53;;;;;;;-142.57;100.00;68379.81;5054184;28;20516;-73
2022/09/18 02:47:14;;;;;;;8.20;2.35;;;;;;;-142.57;100.00;68379.81;5053930;28;20033;-72
2022/09/18 02:50:03;;;;;;;4.60;2.20;;;;;;;-142.57;100.00;68379.81;5054306;28;20032;-73
2022/09/18 02:52:51;;;;;;;10.65;2.72;;;;;;;-142.57;100.00;68379.81;5053409;28;20033;-73
2022/09/18 02:55:30;;;;;;;9.32;2.88;;;;;;;-142.57;100.00;68379.81;5051180;28;20103;-73
2022/09/18 02:57:59;;;;;;;7.90;2.65;;;;;;;-142.57;100.00;68379.81;5052804;28;20047;-72
2022/09/18 03:00:26;;;;;;;7.32;3.20;;;;;;;-142.57;100.00;68379.81;5050884;28;20021;-74
2022/09/18 03:02:51;;;;;;;7.28;2.60;;;;;;;-142.57;100.00;68379.81;5052713;28;20090;-73
2022/09/18 03:05:17;;;;;;;7.53;2.80;;;;;;;-142.57;100.00;68379.81;5052702;28;20032;-73
2022/09/18 03:07:42;;;;;;;8.05;2.63;;;;;;;-142.57;100.00;68379.81;5059344;28;20395;-72
2022/09/18 03:10:08;;;;;;;9.07;2.70;;;;;;;-142.57;100.00;68379.81;5064274;28;20016;-73
2022/09/18 03:12:34;;;;;;;8.30;3.03;;;;;;;-142.57;100.00;68379.81;5044954;28;20081;-72
2022/09/18 03:14:59;;;;;;;8.73;3.83;;;;;;;-142.57;100.00;68379.81;5061070;28;20063;-73
2022/09/18 03:17:24;;;;;;;9.90;3.80;;;;;;;-142.57;100.00;68379.81;5054595;28;20033;-72
2022/09/18 03:19:50;;;;;;;8.90;4.28;;;;;;;-142.57;100.00;68379.81;5048929;28;20025;-73
2022/09/18 03:22:15;;;;;;;19.95;5.13;;;;;;;-142.57;100.00;68379.81;5044769;28;20496;-72
2022/09/18 03:24:40;;;;;;;13.52;4.72;;;;;;;-142.57;100.00;68379.81;5053073;28;20394;-72
2022/09/18 03:27:06;;;;;;;9.15;4.75;;;;;;;-142.57;100.00;68379.81;5065573;28;20078;-73
2022/09/18 03:29:31;;;;;;;9.80;4.32;;;;;;;-142.57;100.00;68379.81;5051943;28;20474;-72
2022/09/18 03:31:57;;;;;;;10.23;5.95;;;;;;;-142.57;100.00;68379.81;5031831;28;20025;-72
2022/09/18 03:34:22;;;;;;;17.42;5.65;;;;;;;-142.57;100.00;68379.81;5048895;28;20029;-72
2022/09/18 03:36:48;;;;;;;14.07;6.25;;;;;;;-142.57;100.00;68379.81;5049657;28;20037;-73
2022/09/18 03:39:13;;;;;;;12.60;6.55;;;;;;;-142.57;100.00;68379.81;5052533;28;20048;-72
2022/09/18 03:41:39;;;;;;;12.73;6.03;;;;;;;-142.57;100.00;68379.81;5052191;28;20032;-72
2022/09/18 03:44:04;;;;;;;15.45;6.18;;;;;;;-142.57;100.00;68379.81;5051572;28;20510;-73
2022/09/18 03:46:30;;;;;;;13.95;6.03;;;;;;;-142.57;100.00;68379.81;5065328;28;20036;-73
2022/09/18 03:48:55;;;;;;;14.32;7.05;;;;;;;-142.57;100.00;68379.81;5052323;28;20108;-73
2022/09/18 03:51:20;;;;;;;17.67;6.78;;;;;;;-142.57;100.00;68379.81;5052929;28;20021;-73
2022/09/18 03:53:47;;;;;;;14.75;7.05;;;;;;;-142.57;100.00;68379.81;5053299;28;20025;-74
2022/09/18 03:56:13;;;;;;;13.35;5.47;;;;;;;-142.57;100.00;68379.81;5052298;28;20035;-74
2022/09/18 03:58:39;;;;;;;14.88;6.28;;;;;;;-142.57;100.00;68379.81;5052606;28;20124;-73
2022/09/18 04:01:05;;;;;;;13.45;6.55;;;;;;;-142.57;100.00;68379.81;5051913;28;20452;-75
2022/09/18 04:03:31;;;;;;;10.73;5.43;;;;;;;-142.57;100.00;68379.81;5052998;28;20032;-74
2022/09/18 04:05:56;;;;;;;14.88;6.28;;;;;;;-142.57;100.00;68379.81;5052004;28;20044;-74
2022/09/18 04:08:22;;;;;;;21.63;6.90;;;;;;;-142.57;100.00;68379.81;5064679;28;20479;-75
2022/09/18 04:10:47;;;;;;;12.02;5.63;;;;;;;-142.57;100.00;68379.81;5051378;28;20024;-74
2022/09/18 04:13:14;;;;;;;12.27;5.95;;;;;;;-142.57;100.00;68379.81;5051462;28;20089;-74
2022/09/18 04:15:39;;;;;;;10.75;5.50;;;;;;;-142.57;100.00;68379.81;5031155;28;20025;-74
2022/09/18 04:18:05;;;;;;;12.50;6.43;;;;;;;-142.57;100.00;68379.81;5051978;28;20395;-74
2022/09/18 04:20:31;;;;;;;11.10;6.35;;;;;;;-142.57;100.00;68379.81;5052839;28;20488;-75
2022/09/18 04:22:59;;;;;;;9.52;6.30;;;;;;;-142.57;100.00;68379.81;5046044;28;20033;-73
2022/09/18 04:25:24;;;;;;;13.57;6.43;;;;;;;-142.57;100.00;68379.81;5044232;28;20821;-73
2022/09/18 04:27:49;;;;;;;9.60;6.28;;;;;;;-142.57;100.00;68379.81;5051988;28;20033;-74
2022/09/18 04:30:15;;;;;;;14.85;7.07;;;;;;;-142.57;100.00;68379.81;5053197;28;20029;-73
2022/09/18 04:32:41;;;;;;;10.52;6.15;;;;;;;-142.57;100.00;68379.81;5050648;28;20479;-73
2022/09/18 04:35:07;;;;;;;13.15;6.53;;;;;;;-142.57;100.00;68379.81;5051333;28;20052;-73
2022/09/18 04:37:32;;;;;;;8.98;5.88;;;;;;;-142.57;100.00;68379.81;5051336;28;20429;-73
2022/09/18 04:39:57;;;;;;;11.57;6.20;;;;;;;-142.57;100.00;68379.81;5051183;28;20023;-73
2022/09/18 04:42:23;;;;;;;13.35;6.88;;;;;;;-142.57;100.00;68379.81;5049746;28;20102;-73
2022/09/18 04:44:48;;;;;;;8.90;5.82;;;;;;;-142.57;100.00;68379.81;5049518;28;20076;-74
2022/09/18 04:47:13;;;;;;;20.00;6.55;;;;;;;-142.57;100.00;68379.81;5045400;28;20025;-75
2022/09/18 04:49:39;;;;;;;10.10;5.03;;;;;;;-142.57;100.00;68379.81;5048856;28;20785;-75
2022/09/18 04:52:04;;;;;;;13.05;5.93;;;;;;;-142.57;100.00;68379.81;5060931;28;20442;-75
2022/09/18 04:54:29;;;;;;;10.30;5.00;;;;;;;-142.57;100.00;68379.81;5048669;28;20036;-74
2022/09/18 04:56:55;;;;;;;13.55;5.88;;;;;;;-142.57;100.00;68379.81;5065399;28;20036;-73
2022/09/18 04:59:21;;;;;;;11.27;5.78;;;;;;;-142.57;100.00;68379.81;5037047;28;20028;-74
2022/09/18 05:01:46;;;;;;;16.38;5.72;;;;;;;-142.57;100.00;68379.81;5037087;28;20028;-73
2022/09/18 05:04:11;;;;;;;16.25;5.65;;;;;;;-142.57;100.00;68379.81;5050859;28;20021;-74
2022/09/18 05:06:37;;;;;;;9.60;5.22;;;;;;;-142.57;100.00;68379.81;5053549;28;20108;-74
2022/09/18 05:09:02;;;;;;;9.57;5.38;;;;;;;-142.57;100.00;68379.81;5053654;28;20033;-74
2022/09/18 05:11:28;;;;;;;14.05;5.10;;;;;;;-142.57;100.00;68379.81;5044963;28;20025;-74
2022/09/18 05:13:55;;;;;;;10.07;5.35;;;;;;;-142.57;100.00;68379.81;5065815;28;20025;-75
2022/09/18 05:16:22;;;;;;;11.40;5.82;;;;;;;-142.57;100.00;68379.81;5046210;28;20526;-76
2022/09/18 05:18:49;;;;;;;14.10;6.30;;;;;;;-142.57;100.00;68379.81;5057887;28;20033;-74
2022/09/18 05:21:14;;;;;;;10.20;6.15;;;;;;;-142.57;100.00;68379.81;5050569;28;20104;-75
2022/09/18 05:23:40;;;;;;;12.65;5.18;;;;;;;-142.57;100.00;68379.81;5049277;28;20135;-73
2022/09/18 05:26:06;;;;;;;7.63;5.20;;;;;;;-142.57;100.00;68379.81;5057167;28;20033;-74
2022/09/18 05:28:31;;;;;;;10.27;4.80;;;;;;;-142.57;100.00;68379.81;5038285;28;20083;-73
2022/09/18 05:30:58;;;;;;;12.65;5.43;;;;;;;-142.57;100.00;68379.81;5046171;28;20123;-73
2022/09/18 05:33:25;;;;;;;14.15;5.35;;;;;;;-142.57;100.00;68379.81;5051718;28;20099;-73
2022/09/18 05:35:53;;;;;;;11.77;4.97;;;;;;;-142.57;100.00;68379.81;5051973;28;20033;-73
2022/09/18 05:38:18;;;;;;;12.27;5.72;;;;;;;-142.57;100.00;68379.81;5056686;28;20471;-73
2022/09/18 05:40:44;;;;;;;7.70;4.95;;;;;;;-142.57;100.00;68379.81;5071311;28;20065;-74
2022/09/18 05:43:09;;;;;;;15.00;5.30;;;;;;;-142.57;100.00;68379.81;5069962;28;20498;-73
2022/09/18 05:45:35;;;;;;;9.55;4.82;;;;;;;-142.57;100.00;68379.81;5073276;28;20051;-74
2022/09/18 05:48:04;;;;;;;9.00;5.15;;;;;;;-142.57;100.00;68379.81;5072627;28;20059;-73
2022/09/18 05:50:30;;;;;;;14.57;5.05;;;;;;;-142.57;100.00;68379.81;5053368;28;20028;-75
2022/09/18 05:53:12;;;;;;;18.52;5.20;;;;;;;-142.57;100.00;68379.81;5066653;28;20375;-73
2022/09/18 05:55:38;;;;;;;10.48;4.20;;;;;;;-142.57;100.00;68379.81;5050453;28;20108;-75
2022/09/18 05:58:05;;;;;;;7.53;4.10;;;;;;;-142.57;100.00;68379.81;5055686;28;20112;-74
2022/09/18 06:00:33;;;;;;;13.70;4.55;;;;;;;-142.57;100.00;68379.81;5053943;28;20017;-74
2022/09/18 06:03:03;;;;;;;8.60;4.25;;;;;;;-142.57;100.00;68379.81;5055729;28;20043;-73
2022/09/18 06:05:31;;;;;;;7.60;4.30;;;;;;;-142.57;100.00;68379.81;5061033;28;20487;-74
2022/09/18 06:07:57;;;;;;;7.72;4.28;;;;;;;-142.57;100.00;68379.81;5071996;28;20028;-74
2022/09/18 06:10:23;;;;;;;12.88;5.28;;;;;;;-142.57;100.00;68379.81;5021513;28;20025;-73
2022/09/18 06:12:48;;;;;;;8.15;4.45;;;;;;;-142.57;100.00;68379.81;5073218;28;20031;-73
2022/09/18 06:15:14;;;;;;;7.95;4.22;;;;;;;-142.57;100.00;68379.81;5065160;28;20074;-73
2022/09/18 06:17:40;;;;;;;9.95;4.45;;;;;;;-142.57;100.00;68379.81;5053587;28;20060;-72
2022/09/18 06:20:07;;;;;;;10.18;4.45;;;;;;;-142.57;100.00;68379.81;5044558;28;20028;-72
2022/09/18 06:22:36;;;;;;;10.35;4.63;;;;;;;-142.57;100.00;68379.81;5060871;28;20031;-72
2022/09/18 06:25:03;;;;;;;10.18;4.35;;;;;;;-142.57;100.00;68379.81;5065343;28;20029;-73
2022/09/18 06:27:29;;;;;;;12.75;4.20;;;;;;;-142.57;100.00;68379.81;5057378;28;20171;-73
2022/09/18 06:29:54;;;;;;;7.30;3.15;;;;;;;-142.57;100.00;68379.81;5055104;28;20099;-73
2022/09/18 06:32:20;;;;;;;11.35;4.93;;;;;;;-142.57;100.00;68379.81;5054770;28;20025;-73
2022/09/18 06:34:46;;;;;;;6.22;3.20;;;;;;;-142.57;100.00;68379.81;5053463;28;20029;-72
2022/09/18 06:37:12;;;;;;;11.57;3.95;;;;;;;-142.57;100.00;68379.81;5053602;28;20029;-73
2022/09/18 06:39:37;;;;;;;8.45;4.63;;;;;;;-142.57;100.00;68379.81;5054684;28;20460;-72
2022/09/18 06:42:03;;;;;;;11.13;3.55;;;;;;;-142.57;100.00;68379.81;5054092;28;20028;-73
2022/09/18 06:44:28;;;;;;;6.60;3.28;;;;;;;-142.57;100.00;68379.81;5036478;28;20021;-74
2022/09/18 06:46:54;;;;;;;11.15;3.40;;;;;;;-142.57;100.00;68379.81;5053750;28;20087;-73
2022/09/18 06:49:19;;;;;;;9.27;3.55;;;;;;;-142.57;100.00;68379.81;5056949;28;20519;-73
2022/09/18 06:51:47;;;;;;;7.25;3.83;;;;;;;-142.57;100.00;68379.81;5060967;28;20032;-73
2022/09/18 06:54:12;;;;;;;6.68;3.42;;;;;;;-142.57;100.00;68379.81;5064101;28;20032;-75
2022/09/18 06:56:38;;;;;;;6.45;3.88;;;;;;;-142.57;100.00;68379.81;5059542;28;20478;-73
2022/09/18 06:59:03;;;;;;;8.32;3.67;;;;;;;-142.57;100.00;68379.81;5053951;28;20033;-73
2022/09/18 07:01:29;;;;;;;6.53;3.38;;;;;;;-142.57;100.00;68379.81;5070567;28;20536;-73
2022/09/18 07:03:55;;;;;;;8.05;4.00;;;;;;;-142.57;100.00;68379.81;5036428;28;20534;-74
2022/09/18 07:06:20;;;;;;;5.70;3.72;;;;;;;-142.57;100.00;68379.81;5050908;28;20032;-73
2022/09/18 07:08:45;;;;;;;13.20;4.18;;;;;;;-142.57;100.00;68379.81;5055410;28;20066;-73
2022/09/18 07:11:11;;;;;;;8.48;3.35;;;;;;;-142.57;100.00;68379.81;5056670;28;20025;-73
2022/09/18 07:13:36;;;;;;;6.03;3.38;;;;;;;-142.57;100.00;68379.81;5046301;28;20032;-74
2022/09/18 07:16:02;;;;;;;8.52;3.58;;;;;;;-142.57;100.00;68379.81;5054312;28;20067;-75
2022/09/18 07:18:28;;;;;;;7.45;4.00;;;;;;;-142.57;100.00;68379.81;5052640;28;20060;-75
2022/09/18 07:20:53;;;;;;;9.60;4.43;;;;;;;-142.57;100.00;68379.81;5052373;28;20098;-74
2022/09/18 07:23:19;;;;;;;6.90;4.25;;;;;;;-142.57;100.00;68379.81;5063928;28;20029;-74
2022/09/18 07:25:45;;;;;;;6.85;3.70;;;;;;;-142.57;100.00;68379.81;5062255;28;20111;-74
2022/09/18 07:28:11;;;;;;;10.27;4.07;;;;;;;-142.57;100.00;68379.81;5067216;28;20464;-75
2022/09/18 07:30:37;;;;;;;8.95;3.70;;;;;;;-142.57;100.00;68379.81;5043002;28;20036;-75
2022/09/18 07:33:04;;;;;;;8.65;5.20;;;;;;;-142.57;100.00;68379.81;5032841;28;20087;-75
2022/09/18 07:35:31;;;;;;;10.48;4.10;;;;;;;-142.57;100.00;68379.81;5052818;28;20051;-75
2022/09/18 07:38:00;;;;;;;7.78;3.85;;;;;;;-142.57;100.00;68379.81;5053321;28;20112;-75
2022/09/18 07:40:26;;;;;;;8.32;3.92;;;;;;;-142.57;100.00;68379.81;5055361;28;20028;-75
2022/09/18 07:42:57;;;;;;;9.80;4.38;;;;;;;-142.57;100.00;68379.81;5053546;28;20029;-74
2022/09/18 07:45:22;;;;;;;6.45;4.10;;;;;;;-142.57;100.00;68379.81;5052291;28;20029;-74
2022/09/18 07:47:48;;;;;;;6.47;4.03;;;;;;;-142.57;100.00;68379.81;5053205;28;20035;-74
2022/09/18 07:50:14;;;;;;;11.27;4.32;;;;;;;-142.57;100.00;68379.81;5052790;28;20086;-74
2022/09/18 07:53:01;;;;;;;14.75;4.45;;;;;;;-142.57;100.00;68379.81;5053654;28;20032;-73
2022/09/18 07:55:27;;;;;;;7.82;4.50;;;;;;;-142.57;100.00;68379.81;5053002;28;20033;-74
2022/09/18 07:57:54;;;;;;;7.70;4.22;;;;;;;-142.57;100.00;68379.81;5052638;28;20031;-76
2022/09/18 08:00:20;;;;;;;8.70;5.00;;;;;;;-142.57;100.00;68379.81;5051841;28;20025;-75
2022/09/18 08:02:45;;;;;;;12.23;4.65;;;;;;;-142.57;100.00;68379.81;5052506;28;20029;-75
2022/09/18 08:05:11;;;;;;;14.45;5.32;;;;;;;-142.57;100.00;68379.81;5051536;28;20032;-73
2022/09/18 08:07:36;;;;;;;9.85;4.50;;;;;;;-142.57;100.00;68379.81;5051209;28;20563;-75
2022/09/18 08:10:03;;;;;;;7.70;4.95;;;;;;;-142.57;100.00;68379.81;5053095;28;20020;-74
2022/09/18 08:12:28;;;;;;;9.80;4.32;;;;;;;-142.57;100.00;68379.81;5051867;28;20037;-75
2022/09/18 08:14:53;;;;;;;16.85;5.90;;;;;;;-142.57;100.00;68379.81;5057923;28;20074;-75
2022/09/18 08:17:19;;;;;;;9.27;7.20;;;;;;;-142.57;100.00;68379.81;5037753;28;20104;-76
2022/09/18 08:19:44;;;;;;;10.50;4.95;;;;;;;-142.57;100.00;68379.81;5032770;28;20387;-75
2022/09/18 08:22:10;;;;;;;9.85;5.55;;;;;;;-142.57;100.00;68379.81;5043565;28;20102;-75
2022/09/18 08:24:35;;;;;;;8.18;5.47;;;;;;;-142.57;100.00;68379.81;5037196;28;20033;-75
2022/09/18 08:27:03;;;;;;;10.27;5.72;;;;;;;-142.57;100.00;68379.81;5057229;28;20445;-76
2022/09/18 08:29:29;;;;;;;8.55;5.47;;;;;;;-142.57;100.00;68379.81;5057828;28;20063;-75
2022/09/18 08:31:55;;;;;;;8.93;6.22;;;;;;;-142.57;100.00;68379.81;5052400;28;20109;-75
2022/09/18 08:34:20;;;;;;;12.05;6.88;;;;;;;-142.57;100.00;68379.81;5050595;28;20479;-75
2022/09/18 08:36:45;;;;;;;10.40;6.25;;;;;;;-142.57;100.00;68379.81;5052699;28;20548;-75
2022/09/18 08:39:11;;;;;;;10.05;5.45;;;;;;;-142.57;100.00;68379.81;5052481;28;20024;-74
2022/09/18 08:41:54;;;;;;;9.20;5.15;;;;;;;-142.57;100.00;68379.81;5056410;28;20364;-75
2022/09/18 08:44:27;;;;;;;6.80;4.93;;;;;;;-142.57;100.00;68379.81;5058640;28;20032;-73
2022/09/18 08:47:04;;;;;;;8.90;6.13;;;;;;;-142.57;100.00;68379.81;5040774;28;20055;-75
2022/09/18 08:49:40;;;;;;;10.48;5.70;;;;;;;-142.57;100.00;68379.81;5053905;28;20025;-75
2022/09/18 08:52:15;;;;;;;10.00;5.65;;;;;;;-142.57;100.00;68379.81;5042688;28;20040;-75
2022/09/18 08:54:46;;;;;;;7.20;5.18;;;;;;;-142.57;100.00;68379.81;5067075;28;20036;-75
2022/09/18 08:57:36;;;;;;;9.35;5.13;;;;;;;-142.57;100.00;68379.81;5051205;28;20032;-75
2022/09/18 09:00:09;;;;;;;9.40;5.38;;;;;;;-142.57;100.00;68379.81;5074452;28;20483;-75
2022/09/18 09:02:38;;;;;;;7.47;6.07;;;;;;;-142.57;100.00;68379.81;5060072;28;20032;-74
2022/09/18 09:05:22;;;;;;;6.78;4.90;;;;;;;-142.57;100.00;68379.81;5032350;28;20420;-75
2022/09/18 09:07:50;;;;;;;12.82;4.88;;;;;;;-142.57;100.00;68379.81;5049404;28;20037;-73
2022/09/18 09:10:55;;;;;;;8.95;4.85;;;;;;;-142.57;100.00;68379.81;5052156;28;20107;-75
2022/09/18 09:13:54;;;;;;;7.93;4.57;;;;;;;-142.57;100.00;68379.81;5044538;28;20091;-73
2022/09/18 09:16:31;;;;;;;6.10;4.07;;;;;;;-142.57;100.00;68379.81;5048783;28;20036;-73
2022/09/18 09:19:01;;;;;;;9.52;4.50;;;;;;;-142.57;100.00;68379.81;5044694;28;20122;-74
2022/09/18 09:21:46;;;;;;;8.63;4.30;;;;;;;-142.57;100.00;68379.81;5060577;28;20024;-74
2022/09/18 09:24:55;;;;;;;7.32;4.47;;;;;;;-142.57;100.00;68379.81;5028051;28;20488;-73
2022/09/18 09:27:35;;;;;;;7.13;4.45;;;;;;;-142.57;100.00;68379.81;5041260;28;20063;-74
2022/09/18 09:30:04;;;;;;;8.18;5.18;;;;;;;-142.57;100.00;68379.81;5047745;28;20037;-73
2022/09/18 09:32:36;;;;;;;7.72;4.60;;;;;;;-142.57;100.00;68379.81;5053995;28;20032;-73
2022/09/18 09:35:15;;;;;;;5.70;4.40;;;;;;;-142.57;100.00;68379.81;5055046;28;20036;-73
2022/09/18 09:37:43;;;;;;;8.73;4.63;;;;;;;-142.57;100.00;68379.81;5050495;28;20082;-73
2022/09/18 09:40:21;;;;;;;7.68;4.95;;;;;;;-142.57;100.00;68379.81;5049963;28;20078;-73
2022/09/18 09:42:52;;;;;;;5.38;4.55;;;;;;;-142.57;100.00;68379.81;5052039;28;20044;-74
2022/09/18 09:45:28;;;;;;;7.28;4.80;;;;;;;-142.57;100.00;68379.81;5065130;28;20025;-74
2022/09/18 09:48:06;;;;;;;8.55;5.20;;;;;;;-142.57;100.00;68379.81;5065343;28;20033;-74
2022/09/18 09:50:54;;;;;;;6.55;4.72;;;;;;;-142.57;100.00;68379.81;5051045;28;20480;-76
2022/09/18 09:53:23;;;;;;;6.18;4.82;;;;;;;-142.57;100.00;68379.81;5083167;28;20826;-76
2022/09/18 09:56:17;;;;;;;7.35;5.15;;;;;;;-142.57;100.00;68379.81;5059625;28;20028;-73
2022/09/18 09:58:52;;;;;;;8.25;5.30;;;;;;;-142.57;100.00;68379.81;5050379;28;20488;-73
2022/09/18 10:01:29;;;;;;;;;;;;;;;-142.57;100.00;68379.81;5061349;28;20503;-76
2022/09/18 10:04:17;;;;;;;7.93;5.22;;;;;;;-142.57;100.00;68379.81;5058138;28;20398;-73
2022/09/18 10:07:13;;;;;;;9.15;5.55;;;;;;;-142.57;100.00;68379.81;5050444;28;20040;-69
2022/09/18 10:10:05;;;;;;;14.57;6.18;;;;;;;-142.57;100.00;68379.81;5053182;28;20039;-74
2022/09/18 10:12:41;;;;;;;8.48;5.43;;;;;;;-142.57;100.00;68379.81;5055496;28;20036;-75
2022/09/18 10:15:31;;;;;;;10.18;5.28;;;;;;;-142.57;100.00;68379.81;5049433;28;20036;-73
2022/09/18 10:17:58;;;;;;;9.77;6.53;;;;;;;-142.57;100.00;68379.81;5044624;28;20041;-74
2022/09/18 10:20:27;;;;;;;9.38;6.13;;;;;;;-142.57;100.00;68379.81;5035908;28;20036;-74
2022/09/18 10:22:54;;;;;;;8.60;5.10;;;;;;;-142.57;100.00;68379.81;5033659;28;20021;-72
2022/09/18 10:25:56;;;;;;;7.15;5.30;;;;;;;-142.57;100.00;68379.81;5053757;28;20021;-72
2022/09/18 10:28:24;;;;;;;9.38;6.18;;;;;;;-142.57;100.00;68379.81;5057969;28;20045;-70
2022/09/18 10:30:58;;;;;;;10.77;5.47;;;;;;;-142.57;100.00;68379.81;5062861;28;20033;-70
2022/09/18 10:33:36;;;;;;;8.80;6.05;;;;;;;-142.57;100.00;68379.81;5070044;28;20024;-69
2022/09/18 10:36:18;;;;;;;15.73;8.70;;;;;;;-142.57;100.00;68379.81;5067901;28;20550;-69
2022/09/18 10:38:44;;;;;;;14.13;9.70;;;;;;;-142.57;100.00;68379.81;5062180;28;20033;-68
2022/09/18 10:41:34;;;;;;;17.10;9.18;;;;;;;-142.57;100.00;68379.81;5053412;28;20548;-69
2022/09/18 10:44:06;;;;;;;9.45;7.75;;;;;;;-142.57;100.00;68379.81;5053837;28;20029;-69
2022/09/18 10:46:33;;;;;;;9.43;5.72;;;;;;;-142.57;100.00;68379.81;5052597;28;20021;-69
2022/09/18 10:49:03;;;;;;;9.90;5.68;;;;;;;-142.57;100.00;68379.81;5056480;28;20054;-68
2022/09/18 10:51:28;;;;;;;11.38;6.22;;;;;;;-142.57;100.00;68379.81;5057710;28;20498;-69
2022/09/18 10:54:14;;;;;;;7.68;5.20;;;;;;;-142.57;100.00;68379.81;5058167;28;20103;-70
2022/09/18 10:56:40;;;;;;;10.10;6.05;;;;;;;-142.57;100.00;68379.81;5053028;28;20203;-70
2022/09/18 10:59:15;;;;;;;10.57;5.35;;;;;;;-142.57;100.00;68379.81;5053049;28;20483;-69
2022/09/18 11:01:40;;;;;;;8.93;5.80;;;;;;;-142.57;100.00;68379.81;5057188;28;20059;-70
2022/09/18 11:04:14;;;;;;;11.60;5.28;;;;;;;-142.57;100.00;68379.81;5053923;28;20059;-73
2022/09/18 11:06:42;;;;;;;5.70;4.43;;;;;;;-142.57;100.00;68379.81;5058138;28;20033;-72
2022/09/18 11:09:09;;;;;;;9.77;5.28;;;;;;;-142.57;100.00;68379.81;5062029;28;20170;-71
2022/09/18 11:11:36;;;;;;;7.07;5.10;;;;;;;-142.57;100.00;68379.81;5053777;28;20032;-72
2022/09/18 11:14:30;;;;;;;9.35;5.22;;;;;;;-142.57;100.00;68379.81;5056846;28;20024;-72
2022/09/18 11:16:58;;;;;;;7.03;4.85;;;;;;;-142.57;100.00;68379.81;5051288;28;20055;-73
2022/09/18 11:19:27;;;;;;;9.27;5.43;;;;;;;-142.57;100.00;68379.81;5062199;28;20028;-72
2022/09/18 11:21:58;;;;;;;7.97;5.25;;;;;;;-142.57;100.00;68379.81;5069052;28;20017;-73